Time;durP1;ratioP1;P1;durP2;ratioP2;P2;SDS_P1;SDS_P2;PMS_P1;PMS_P2;Temp;Humidity;BMP_temperature;BMP_pressure;BME280_temperature;BME280_humidity;BME280_pressure;Samples;Min_cycle;Max_cycle;Signal;HPM_P1;HPM_P2
2022/04/17 00:01:17;;;;;;;5.50;2.50;;;;;;101849.77;;;;107099;1277;67436;-40
2022/04/17 00:03:44;;;;;;;5.40;2.40;;;;;;101849.55;;;;107215;1275;64858;-30
2022/04/17 00:06:15;;;;;;;5.80;2.60;;;;;;101849.94;;;;107204;1274;64750;-37
2022/04/17 00:08:45;;;;;;;6.40;2.60;;;;;;101850.02;;;;107160;1274;64795;-41
2022/04/17 00:11:16;;;;;;;4.80;2.50;;;;;;101846.63;;;;107246;1274;64786;-40
2022/04/17 00:13:48;;;;;;;4.50;3.00;;;;;;101843.09;;;;107134;1275;66440;-30
2022/04/17 00:16:18;;;;;;;5.30;2.70;;;;;;101843.30;;;;107229;1274;64869;-31
2022/04/17 00:18:48;;;;;;;4.80;2.40;;;;;;101841.39;;;;107163;1274;64914;-31
2022/04/17 00:21:16;;;;;;;5.10;2.70;;;;;;101842.79;;;;107230;1274;64700;-30
2022/04/17 00:23:46;;;;;;;5.60;2.80;;;;;;101837.58;;;;107226;1274;64759;-47
2022/04/17 00:26:15;;;;;;;5.80;2.80;;;;;;101836.84;;;;107224;1274;65709;-40
2022/04/17 00:28:46;;;;;;;5.50;2.70;;;;;;101837.08;;;;107174;1274;64840;-35
2022/04/17 00:31:13;;;;;;;4.50;2.40;;;;;;101838.70;;;;107244;1274;64843;-30
2022/04/17 00:33:43;;;;;;;4.80;2.50;;;;;;101837.29;;;;107245;1274;64876;-40
2022/04/17 00:36:10;;;;;;;5.40;2.70;;;;;;101838.59;;;;107269;1274;64948;-40
2022/04/17 00:38:41;;;;;;;5.30;2.40;;;;;;101840.20;;;;107189;1274;66198;-36
2022/04/17 00:41:08;;;;;;;5.30;2.50;;;;;;101838.48;;;;107191;1274;64748;-31
2022/04/17 00:43:45;;;;;;;5.30;2.80;;;;;;101838.43;;;;107197;1274;64761;-30
2022/04/17 00:46:14;;;;;;;5.70;2.80;;;;;;101839.91;;;;107197;1274;64817;-41
2022/04/17 00:48:44;;;;;;;6.20;2.60;;;;;;101838.21;;;;107278;1274;64843;-31
2022/04/17 00:51:12;;;;;;;5.60;2.60;;;;;;101836.05;;;;107133;1275;66551;-30
2022/04/17 00:53:45;;;;;;;4.50;2.60;;;;;;101834.23;;;;107169;1274;64869;-30
2022/04/17 00:56:13;;;;;;;5.30;2.60;;;;;;101828.89;;;;107261;1274;65040;-30
2022/04/17 00:58:44;;;;;;;4.20;2.30;;;;;;101828.81;;;;107253;1274;64874;-40
2022/04/17 01:01:11;;;;;;;5.10;2.70;;;;;;101829.64;;;;107238;1274;64754;-40
2022/04/17 01:03:38;;;;;;;5.50;2.30;;;;;;101829.95;;;;107271;1274;64804;-32
2022/04/17 01:06:06;;;;;;;4.80;2.20;;;;;;101827.08;;;;107231;1274;64874;-30
2022/04/17 01:08:40;;;;;;;5.30;2.60;;;;;;101826.05;;;;107161;1274;65501;-31
2022/04/17 01:11:11;;;;;;;4.70;2.50;;;;;;101829.96;;;;107244;1274;64907;-31
2022/04/17 01:13:42;;;;;;;5.00;2.60;;;;;;101830.06;;;;107095;1275;64763;-40
2022/04/17 01:16:11;;;;;;;5.10;2.40;;;;;;101829.20;;;;107236;1274;66196;-40
2022/04/17 01:19:13;;;;;;;5.10;2.50;;;;;;101829.26;;;;107242;1274;64843;-31
2022/04/17 01:21:42;;;;;;;4.90;2.60;;;;;;101826.83;;;;107236;1274;64830;-31
2022/04/17 01:27:00;;;;;;;5.00;2.40;;;;;;101821.27;;;;107277;1274;64730;-40
2022/04/17 01:29:34;;;;;;;5.20;2.90;;;;;;101820.11;;;;107162;1274;67652;-43
2022/04/17 01:32:05;;;;;;;4.40;2.20;;;;;;101815.15;;;;107270;1274;64825;-40
2022/04/17 01:34:37;;;;;;;5.00;2.40;;;;;;101810.66;;;;107272;1274;66260;-41
2022/04/17 01:37:08;;;;;;;5.20;2.50;;;;;;101810.20;;;;107265;1274;64882;-31
2022/04/17 01:39:38;;;;;;;5.20;2.50;;;;;;101809.63;;;;107271;1274;64974;-30
2022/04/17 01:42:06;;;;;;;5.20;2.50;;;;;;101804.87;;;;107251;1274;67730;-41
2022/04/17 01:44:33;;;;;;;4.50;2.20;;;;;;101803.33;;;;107235;1274;64846;-39
2022/04/17 01:47:04;;;;;;;4.90;2.50;;;;;;101801.42;;;;107274;1274;65036;-30
2022/04/17 01:49:36;;;;;;;4.80;2.60;;;;;;101799.85;;;;107193;1274;64749;-30
2022/04/17 01:52:04;;;;;;;4.60;2.50;;;;;;101794.96;;;;107313;1274;64748;-40
2022/04/17 01:54:32;;;;;;;4.70;2.40;;;;;;101795.54;;;;107297;1274;66393;-40
2022/04/17 01:57:03;;;;;;;4.90;2.60;;;;;;101796.10;;;;107309;1274;65197;-30
2022/04/17 01:59:30;;;;;;;4.80;2.50;;;;;;101792.73;;;;107289;1273;64872;-31
2022/04/17 02:01:58;;;;;;;4.30;2.30;;;;;;101792.98;;;;107179;1274;64754;-41
2022/04/17 02:04:27;;;;;;;4.40;2.20;;;;;;101791.94;;;;107260;1274;64840;-40
2022/04/17 02:06:54;;;;;;;6.40;2.30;;;;;;101789.27;;;;107239;1274;67433;-31
2022/04/17 02:09:24;;;;;;;5.20;2.40;;;;;;101787.99;;;;107243;1274;64750;-30
2022/04/17 02:11:53;;;;;;;5.50;2.30;;;;;;101787.23;;;;107238;1274;64744;-40
2022/04/17 02:14:23;;;;;;;5.00;2.30;;;;;;101788.86;;;;107261;1274;64833;-41
2022/04/17 02:16:50;;;;;;;4.40;2.60;;;;;;101789.39;;;;107310;1274;64741;-40
2022/04/17 02:19:20;;;;;;;4.10;1.90;;;;;;101789.50;;;;107252;1274;66453;-40
2022/04/17 02:21:48;;;;;;;6.50;2.20;;;;;;101790.02;;;;107254;1274;64871;-41
2022/04/17 02:24:15;;;;;;;5.00;2.30;;;;;;101790.63;;;;107263;1274;64768;-49
2022/04/17 02:26:42;;;;;;;5.60;2.60;;;;;;101792.23;;;;107222;1274;64903;-31
2022/04/17 02:29:09;;;;;;;4.20;2.20;;;;;;101793.45;;;;107248;1274;64884;-30
2022/04/17 02:31:37;;;;;;;4.50;2.10;;;;;;101788.30;;;;107196;1274;65988;-39
2022/04/17 02:34:05;;;;;;;4.50;2.20;;;;;;101788.50;;;;107262;1274;65161;-40
2022/04/17 02:36:36;;;;;;;4.80;2.10;;;;;;101787.56;;;;107263;1274;65084;-38
2022/04/17 02:39:06;;;;;;;4.30;2.30;;;;;;101788.52;;;;107281;1274;64859;-40
2022/04/17 02:41:36;;;;;;;4.60;2.30;;;;;;101786.44;;;;107254;1274;64786;-31
2022/04/17 02:44:06;;;;;;;5.70;2.90;;;;;;101786.77;;;;107204;1274;66531;-30
2022/04/17 02:49:20;;;;;;;5.40;2.40;;;;;;101785.23;;;;107210;1274;64849;-41
2022/04/17 02:51:50;;;;;;;4.60;2.30;;;;;;101785.90;;;;107202;1274;64899;-31
2022/04/17 02:54:17;;;;;;;4.70;2.10;;;;;;101785.98;;;;107206;1274;64852;-31
2022/04/17 02:56:48;;;;;;;4.30;2.00;;;;;;101783.96;;;;107241;1274;66467;-34
2022/04/17 02:59:15;;;;;;;4.50;2.10;;;;;;101781.44;;;;107181;1274;64881;-34
2022/04/17 03:07:19;;;;;;;6.10;2.30;;;;;;101776.42;;;;107206;1274;65308;-41
2022/04/17 03:09:47;;;;;;;4.70;2.30;;;;;;101777.79;;;;107248;1274;66004;-47
2022/04/17 03:12:17;;;;;;;5.80;2.50;;;;;;101777.74;;;;107196;1274;64734;-41
2022/04/17 03:14:46;;;;;;;4.30;2.20;;;;;;101779.83;;;;107203;1274;65867;-43
2022/04/17 03:17:14;;;;;;;4.80;2.30;;;;;;101780.80;;;;107242;1274;63574;-37
2022/04/17 03:19:41;;;;;;;5.00;2.20;;;;;;101780.91;;;;107246;1274;64750;-30
2022/04/17 03:22:12;;;;;;;5.20;2.30;;;;;;101783.19;;;;107224;1274;65231;-40
2022/04/17 03:24:39;;;;;;;4.40;2.50;;;;;;101783.03;;;;107124;1274;64863;-41
2022/04/17 03:27:09;;;;;;;4.80;2.20;;;;;;101784.28;;;;107188;1274;64849;-31
2022/04/17 03:29:40;;;;;;;4.20;2.10;;;;;;101779.34;;;;107223;1274;65199;-31
2022/04/17 03:32:10;;;;;;;5.30;2.10;;;;;;101783.98;;;;107204;1274;64650;-31
2022/04/17 03:34:37;;;;;;;4.60;2.30;;;;;;101789.59;;;;107251;1274;67592;-31
2022/04/17 03:37:08;;;;;;;3.90;1.70;;;;;;101790.30;;;;107236;1274;64747;-41
2022/04/17 03:39:35;;;;;;;5.00;2.10;;;;;;101793.05;;;;107215;1274;64885;-41
2022/04/17 03:42:04;;;;;;;4.50;2.00;;;;;;101792.33;;;;107186;1274;64898;-41
2022/04/17 03:44:31;;;;;;;3.90;1.80;;;;;;101790.84;;;;107292;1274;64955;-40
2022/04/17 03:47:02;;;;;;;5.30;2.20;;;;;;101793.76;;;;107236;1274;65951;-30
2022/04/17 03:49:29;;;;;;;4.30;1.80;;;;;;101794.76;;;;107180;1274;64768;-30
2022/04/17 03:51:56;;;;;;;4.10;2.20;;;;;;101794.33;;;;107264;1274;64792;-30
2022/04/17 03:54:27;;;;;;;4.50;1.90;;;;;;101791.20;;;;107233;1273;64854;-30
2022/04/17 03:56:57;;;;;;;4.10;2.10;;;;;;101787.12;;;;107218;1274;64600;-40
2022/04/17 03:59:27;;;;;;;4.30;2.00;;;;;;101786.58;;;;107241;1274;66074;-41
2022/04/17 04:01:58;;;;;;;4.10;1.90;;;;;;101781.77;;;;107175;1274;64834;-45
2022/04/17 04:04:25;;;;;;;4.80;2.40;;;;;;101783.35;;;;107213;1274;64856;-41
2022/04/17 04:06:52;;;;;;;3.50;1.80;;;;;;101787.45;;;;107222;1274;64921;-30
2022/04/17 04:09:23;;;;;;;4.20;1.70;;;;;;101789.03;;;;107172;1274;64847;-30
2022/04/17 04:11:50;;;;;;;5.60;2.00;;;;;;101788.88;;;;107234;1274;66467;-39
2022/04/17 04:14:20;;;;;;;5.50;2.30;;;;;;101786.50;;;;104548;1274;3431425;-39
2022/04/17 04:16:47;;;;;;;4.10;1.90;;;;;;101781.80;;;;107240;1274;64762;-30
2022/04/17 04:19:18;;;;;;;4.60;2.30;;;;;;101783.23;;;;107212;1274;65010;-30
2022/04/17 04:21:48;;;;;;;5.40;2.10;;;;;;101783.83;;;;107279;1274;64840;-30
2022/04/17 04:24:24;;;;;;;4.40;2.50;;;;;;101779.29;;;;107226;1274;67612;-31
2022/04/17 04:29:40;;;;;;;3.70;2.00;;;;;;101780.80;;;;107254;1274;64879;-30
2022/04/17 04:32:08;;;;;;;4.60;2.10;;;;;;101779.91;;;;107238;1274;64773;-30
2022/04/17 04:34:38;;;;;;;4.40;2.00;;;;;;101782.64;;;;107284;1274;64734;-30
2022/04/17 04:37:06;;;;;;;4.70;2.10;;;;;;101785.95;;;;107249;1274;65239;-42
2022/04/17 04:39:34;;;;;;;4.20;2.30;;;;;;101789.58;;;;107272;1274;64848;-40
2022/04/17 04:42:04;;;;;;;5.60;2.30;;;;;;101792.85;;;;107257;1274;64887;-30
2022/04/17 04:44:31;;;;;;;4.70;2.70;;;;;;101792.10;;;;107238;1274;64894;-30
2022/04/17 04:47:01;;;;;;;5.10;2.30;;;;;;101793.54;;;;107298;1274;64898;-30
2022/04/17 04:49:32;;;;;;;4.70;2.10;;;;;;101792.82;;;;107292;1274;67680;-30
2022/04/17 04:52:03;;;;;;;4.90;2.10;;;;;;101790.76;;;;107255;1274;64750;-30
2022/04/17 04:54:32;;;;;;;4.40;2.10;;;;;;101790.73;;;;107287;1274;64898;-30
2022/04/17 04:57:00;;;;;;;4.30;2.20;;;;;;101793.46;;;;107166;1274;64858;-30
2022/04/17 04:59:30;;;;;;;4.10;1.90;;;;;;101792.48;;;;107289;1274;64891;-30
2022/04/17 05:02:01;;;;;;;4.50;2.10;;;;;;101794.51;;;;107280;1274;66099;-31
2022/04/17 05:04:29;;;;;;;4.10;2.10;;;;;;101795.20;;;;107270;1274;64748;-30
2022/04/17 05:06:56;;;;;;;4.60;2.20;;;;;;101796.78;;;;107257;1274;64844;-40
2022/04/17 05:09:28;;;;;;;4.80;2.10;;;;;;101797.14;;;;107253;1274;64859;-41
2022/04/17 05:11:55;;;;;;;4.50;2.10;;;;;;101797.96;;;;107278;1274;64618;-31
2022/04/17 05:14:29;;;;;;;4.70;2.00;;;;;;101795.79;;;;107274;1274;64881;-30
2022/04/17 05:16:56;;;;;;;4.40;1.90;;;;;;101793.67;;;;107191;1274;64838;-39
2022/04/17 05:19:27;;;;;;;4.50;2.40;;;;;;101796.91;;;;107260;1274;65391;-40
2022/04/17 05:21:58;;;;;;;4.50;2.30;;;;;;101797.59;;;;107280;1274;64775;-30
2022/04/17 05:24:29;;;;;;;4.40;1.90;;;;;;101795.89;;;;107307;1274;64784;-31
2022/04/17 05:26:59;;;;;;;4.60;2.60;;;;;;101796.45;;;;107325;1274;66416;-41
2022/04/17 05:29:26;;;;;;;4.60;1.90;;;;;;101795.06;;;;107246;1274;64747;-40
2022/04/17 05:31:57;;;;;;;4.40;2.20;;;;;;101792.08;;;;107290;1274;64921;-30
2022/04/17 05:34:27;;;;;;;4.60;2.10;;;;;;101794.48;;;;107269;1274;64782;-30
2022/04/17 05:36:55;;;;;;;4.50;2.20;;;;;;101794.19;;;;107308;1274;64766;-30
2022/04/17 05:39:25;;;;;;;4.60;1.90;;;;;;101792.77;;;;107280;1274;65988;-30
2022/04/17 05:41:53;;;;;;;4.90;2.00;;;;;;101795.23;;;;107267;1274;64855;-39
2022/04/17 05:44:23;;;;;;;4.20;2.10;;;;;;101791.64;;;;107278;1274;64711;-40
2022/04/17 05:46:50;;;;;;;4.20;1.80;;;;;;101793.40;;;;107228;1274;64904;-30
2022/04/17 05:49:21;;;;;;;4.80;2.20;;;;;;101793.55;;;;107296;1274;64724;-30
2022/04/17 05:51:49;;;;;;;4.70;2.10;;;;;;101793.17;;;;107198;1274;66475;-29
2022/04/17 05:54:20;;;;;;;5.00;2.60;;;;;;101793.90;;;;107263;1274;64702;-30
2022/04/17 05:56:47;;;;;;;4.40;2.10;;;;;;101793.77;;;;107289;1274;64612;-30
2022/04/17 05:59:18;;;;;;;5.10;2.30;;;;;;101792.98;;;;107270;1274;64682;-30
2022/04/17 06:01:46;;;;;;;3.60;1.80;;;;;;101792.38;;;;107305;1272;64830;-40
2022/04/17 06:04:14;;;;;;;4.50;2.10;;;;;;101792.76;;;;107189;1274;66413;-41
2022/04/17 06:06:42;;;;;;;4.80;2.10;;;;;;101794.99;;;;107271;1274;64762;-40
2022/04/17 06:09:12;;;;;;;4.30;2.20;;;;;;101796.40;;;;107185;1274;64837;-40
2022/04/17 06:11:40;;;;;;;4.50;1.90;;;;;;101794.77;;;;107242;1274;64779;-39
2022/04/17 06:14:10;;;;;;;4.50;2.00;;;;;;101794.98;;;;107299;1274;64837;-40
2022/04/17 06:16:39;;;;;;;4.40;2.00;;;;;;101797.63;;;;107311;1274;64757;-39
2022/04/17 06:19:09;;;;;;;5.00;1.90;;;;;;101799.35;;;;107263;1274;64964;-41
2022/04/17 06:21:37;;;;;;;4.70;1.90;;;;;;101803.99;;;;107285;1274;64748;-31
2022/04/17 06:24:07;;;;;;;5.30;2.00;;;;;;101807.19;;;;107108;1274;64770;-31
2022/04/17 06:26:35;;;;;;;4.30;2.00;;;;;;101809.70;;;;107268;1274;64844;-44
2022/04/17 06:29:08;;;;;;;4.60;2.10;;;;;;101809.18;;;;107257;1274;64977;-40
2022/04/17 06:31:45;;;;;;;4.10;1.80;;;;;;101807.68;;;;107141;1274;64744;-31
2022/04/17 06:34:13;;;;;;;4.50;2.30;;;;;;101805.41;;;;107269;1274;64856;-31
2022/04/17 06:36:43;;;;;;;4.20;2.20;;;;;;101802.33;;;;107255;1274;64896;-31
2022/04/17 06:39:10;;;;;;;3.80;1.90;;;;;;101802.11;;;;107239;1274;64987;-30
2022/04/17 06:41:40;;;;;;;5.10;2.10;;;;;;101802.48;;;;107258;1274;66142;-30
2022/04/17 06:44:11;;;;;;;5.10;2.10;;;;;;101800.49;;;;107115;1274;64911;-30
2022/04/17 06:46:42;;;;;;;3.90;1.90;;;;;;101800.88;;;;107122;1274;64854;-39
2022/04/17 06:49:13;;;;;;;4.40;2.10;;;;;;101803.95;;;;107240;1274;64997;-40
2022/04/17 06:51:44;;;;;;;5.20;2.10;;;;;;101805.79;;;;107267;1274;64882;-31
2022/04/17 06:54:14;;;;;;;4.40;2.00;;;;;;101803.94;;;;107245;1274;66188;-31
2022/04/17 06:56:44;;;;;;;4.20;2.00;;;;;;101802.50;;;;107300;1272;64866;-41
2022/04/17 06:59:12;;;;;;;5.10;2.40;;;;;;101800.79;;;;107166;1274;64946;-49
2022/04/17 07:01:43;;;;;;;3.90;1.80;;;;;;101802.59;;;;107253;1274;64715;-49
2022/04/17 07:04:10;;;;;;;4.80;2.00;;;;;;101801.53;;;;107206;1274;64882;-41
2022/04/17 07:06:37;;;;;;;5.30;2.50;;;;;;101800.92;;;;107310;1274;64896;-39
2022/04/17 07:09:05;;;;;;;4.60;2.10;;;;;;101799.83;;;;107246;1274;64773;-40
2022/04/17 07:11:35;;;;;;;4.40;2.00;;;;;;101797.19;;;;107283;1274;64808;-34
2022/04/17 07:14:06;;;;;;;4.20;1.90;;;;;;101798.63;;;;107252;1274;65009;-40
2022/04/17 07:16:33;;;;;;;4.90;2.20;;;;;;101795.20;;;;107286;1273;64822;-31
2022/04/17 07:19:01;;;;;;;4.00;2.10;;;;;;101799.13;;;;107267;1274;64872;-30
2022/04/17 07:21:28;;;;;;;5.20;2.00;;;;;;101795.52;;;;107257;1272;64772;-30
2022/04/17 07:23:57;;;;;;;5.40;2.40;;;;;;101793.56;;;;107279;1273;64794;-41
2022/04/17 07:26:25;;;;;;;4.70;2.40;;;;;;101796.25;;;;107277;1274;65006;-41
2022/04/17 07:28:52;;;;;;;5.20;2.30;;;;;;101793.52;;;;107285;1274;64737;-30
2022/04/17 07:31:19;;;;;;;6.40;2.60;;;;;;101795.11;;;;107295;1274;67750;-30
2022/04/17 07:33:49;;;;;;;4.30;2.00;;;;;;101798.86;;;;107278;1273;64817;-40
2022/04/17 07:36:17;;;;;;;4.20;2.20;;;;;;101796.02;;;;107246;1273;64753;-31
2022/04/17 07:38:48;;;;;;;6.60;2.40;;;;;;101789.98;;;;107268;1274;64900;-40
2022/04/17 07:41:15;;;;;;;6.40;2.40;;;;;;101790.48;;;;107273;1274;64760;-47
2022/04/17 07:43:42;;;;;;;4.50;2.50;;;;;;101792.07;;;;107302;1274;66391;-45
2022/04/17 07:46:09;;;;;;;5.00;2.40;;;;;;101787.42;;;;107265;1274;64771;-40
2022/04/17 07:48:36;;;;;;;4.30;2.10;;;;;;101791.30;;;;107245;1274;64732;-31
2022/04/17 07:51:07;;;;;;;5.20;2.40;;;;;;101790.30;;;;107164;1274;64873;-31
2022/04/17 07:53:38;;;;;;;4.70;2.50;;;;;;101787.33;;;;107282;1274;64779;-30
2022/04/17 07:56:10;;;;;;;5.50;2.50;;;;;;101787.12;;;;107292;1274;66469;-30
2022/04/17 07:58:39;;;;;;;4.80;2.40;;;;;;101783.01;;;;107298;1274;64806;-40
2022/04/17 08:01:11;;;;;;;5.60;2.60;;;;;;101780.13;;;;107308;1274;64846;-40
2022/04/17 08:06:20;;;;;;;4.60;2.30;;;;;;101779.50;;;;107295;1274;64859;-40
2022/04/17 08:08:51;;;;;;;7.00;2.80;;;;;;101781.46;;;;107198;1274;67066;-30
2022/04/17 08:11:18;;;;;;;7.10;2.50;;;;;;101778.41;;;;107278;1273;64737;-30
2022/04/17 08:13:46;;;;;;;6.20;2.40;;;;;;101774.73;;;;107254;1274;64932;-34
2022/04/17 08:16:14;;;;;;;6.40;2.30;;;;;;101778.63;;;;107255;1274;65001;-32
2022/04/17 08:18:45;;;;;;;6.10;2.50;;;;;;101778.13;;;;107298;1274;64980;-30
2022/04/17 08:21:16;;;;;;;5.10;2.40;;;;;;101774.39;;;;107154;1274;66092;-30
2022/04/17 08:23:46;;;;;;;6.10;2.40;;;;;;101771.63;;;;107238;1273;66408;-39
2022/04/17 08:26:14;;;;;;;4.80;2.20;;;;;;101772.20;;;;107217;1274;64865;-40
2022/04/17 08:28:45;;;;;;;5.20;2.70;;;;;;101773.70;;;;107235;1274;64844;-40
2022/04/17 08:31:12;;;;;;;5.40;2.50;;;;;;101774.09;;;;107299;1274;64728;-40
2022/04/17 08:33:42;;;;;;;4.80;2.40;;;;;;101776.23;;;;107239;1274;66410;-31
2022/04/17 08:36:10;;;;;;;6.00;2.80;;;;;;101771.27;;;;107276;1273;65445;-30
2022/04/17 08:38:42;;;;;;;5.00;2.30;;;;;;101771.10;;;;107281;1274;64829;-39
2022/04/17 08:41:12;;;;;;;5.90;2.30;;;;;;101769.36;;;;107257;1274;64897;-42
2022/04/17 08:43:45;;;;;;;6.30;2.70;;;;;;101766.27;;;;107340;1274;64734;-39
2022/04/17 08:46:12;;;;;;;5.90;2.60;;;;;;101766.86;;;;107325;1274;67673;-40
2022/04/17 08:48:43;;;;;;;6.10;2.90;;;;;;101767.69;;;;107279;1273;64820;-39
2022/04/17 08:51:10;;;;;;;6.00;2.50;;;;;;101759.77;;;;107260;1272;65470;-40
2022/04/17 08:53:41;;;;;;;7.00;2.80;;;;;;101754.27;;;;107258;1274;64771;-30
2022/04/17 08:56:09;;;;;;;5.20;2.70;;;;;;101751.69;;;;107327;1274;64738;-31
2022/04/17 08:58:36;;;;;;;6.50;2.80;;;;;;101746.98;;;;107221;1274;65964;-30
2022/04/17 09:01:06;;;;;;;5.90;2.50;;;;;;101744.03;;;;107266;1274;64769;-30
2022/04/17 09:03:33;;;;;;;5.70;2.80;;;;;;101740.54;;;;107264;1274;64753;-30
2022/04/17 09:06:03;;;;;;;5.90;2.50;;;;;;101739.00;;;;107235;1273;64862;-30
2022/04/17 09:08:33;;;;;;;6.10;2.90;;;;;;101733.48;;;;107289;1274;64849;-40
2022/04/17 09:11:01;;;;;;;5.70;2.30;;;;;;101732.45;;;;107274;1274;66119;-40
2022/04/17 09:13:33;;;;;;;6.50;2.60;;;;;;101724.91;;;;107288;1274;65025;-30
2022/04/17 09:16:04;;;;;;;5.40;2.40;;;;;;101723.59;;;;107286;1274;63569;-30
2022/04/17 09:18:36;;;;;;;5.00;2.50;;;;;;101719.47;;;;107333;1274;64768;-30
2022/04/17 09:21:06;;;;;;;5.40;2.50;;;;;;101717.27;;;;107162;1274;64917;-30
2022/04/17 09:23:40;;;;;;;5.60;2.70;;;;;;101711.23;;;;107297;1274;65853;-40
2022/04/17 09:26:11;;;;;;;7.20;2.70;;;;;;101707.98;;;;107282;1274;64799;-39
2022/04/17 09:28:44;;;;;;;5.50;2.60;;;;;;101705.98;;;;107268;1274;64731;-39
2022/04/17 09:31:13;;;;;;;4.80;2.60;;;;;;101704.44;;;;107283;1274;64779;-39
2022/04/17 09:33:49;;;;;;;6.20;2.40;;;;;;101695.79;;;;107325;1274;64773;-39
2022/04/17 09:36:31;;;;;;;5.80;2.50;;;;;;101691.97;;;;107262;1273;68590;-39
2022/04/17 09:39:14;;;;;;;5.30;2.20;;;;;;101687.27;;;;107156;1274;64834;-40
2022/04/17 09:42:12;;;;;;;6.30;2.50;;;;;;101688.26;;;;107160;1274;64878;-38
2022/04/17 09:44:47;;;;;;;4.30;2.50;;;;;;101681.90;;;;107069;1274;64814;-30
2022/04/17 09:47:21;;;;;;;4.90;2.60;;;;;;101678.21;;;;107239;1274;64683;-39
2022/04/17 09:49:54;;;;;;;5.20;2.70;;;;;;101674.34;;;;107287;1274;65796;-39
2022/04/17 09:52:31;;;;;;;5.30;2.40;;;;;;101668.32;;;;107159;1274;64780;-30
2022/04/17 09:55:01;;;;;;;4.90;2.80;;;;;;101665.88;;;;107270;1274;64736;-30
2022/04/17 09:57:35;;;;;;;4.70;2.50;;;;;;101658.41;;;;107297;1274;64833;-30
2022/04/17 10:00:14;;;;;;;5.70;2.60;;;;;;101659.60;;;;107271;1274;64872;-30
2022/04/17 10:02:47;;;;;;;5.10;2.40;;;;;;101654.14;;;;107288;1274;66118;-39
2022/04/17 10:05:20;;;;;;;4.90;2.40;;;;;;101648.76;;;;107141;1274;64834;-40
2022/04/17 10:07:50;;;;;;;4.80;2.40;;;;;;101640.76;;;;107181;1274;64997;-30
2022/04/17 10:10:18;;;;;;;4.60;2.20;;;;;;101636.49;;;;107232;1274;64837;-29
2022/04/17 10:12:48;;;;;;;5.80;2.40;;;;;;101633.18;;;;107161;1272;64768;-30
2022/04/17 10:15:19;;;;;;;5.90;2.80;;;;;;101629.83;;;;107275;1274;66270;-30
2022/04/17 10:17:52;;;;;;;5.40;2.50;;;;;;101628.46;;;;107140;1274;64817;-40
2022/04/17 10:20:25;;;;;;;5.10;2.70;;;;;;101623.14;;;;107145;1274;64833;-41
2022/04/17 10:23:01;;;;;;;4.60;2.40;;;;;;101622.52;;;;107233;1274;64875;-29
2022/04/17 10:25:31;;;;;;;4.60;2.60;;;;;;101618.11;;;;107182;1274;64962;-35
2022/04/17 10:28:02;;;;;;;5.30;3.00;;;;;;101612.98;;;;107148;1274;66020;-39
2022/04/17 10:30:58;;;;;;;4.70;2.90;;;;;;101607.29;;;;107110;1274;64773;-40
2022/04/17 10:33:52;;;;;;;4.90;2.70;;;;;;101600.46;;;;107290;1274;64764;-40
2022/04/17 10:36:48;;;;;;;4.30;2.30;;;;;;101592.38;;;;107136;1274;64914;-39
2022/04/17 10:39:39;;;;;;;4.80;2.50;;;;;;101582.88;;;;107241;1274;64969;-28
2022/04/17 10:42:09;;;;;;;5.10;2.40;;;;;;101583.92;;;;107265;1274;65871;-39
2022/04/17 10:44:45;;;;;;;5.00;2.60;;;;;;101579.55;;;;107249;1274;64827;-39
2022/04/17 10:47:21;;;;;;;4.70;2.40;;;;;;101572.38;;;;107253;1274;64801;-40
2022/04/17 10:49:54;;;;;;;4.60;2.40;;;;;;101575.58;;;;107249;1274;64731;-38
2022/04/17 10:52:28;;;;;;;4.20;2.40;;;;;;101573.11;;;;107280;1273;64826;-40
2022/04/17 10:55:14;;;;;;;4.90;2.30;;;;;;101566.70;;;;107306;1274;65714;-39
2022/04/17 10:57:48;;;;;;;4.40;2.10;;;;;;101566.95;;;;107298;1274;64725;-38
2022/04/17 11:00:28;;;;;;;4.40;2.30;;;;;;101562.28;;;;107265;1274;64732;-39
2022/04/17 11:03:02;;;;;;;4.60;2.20;;;;;;101559.92;;;;107296;1274;64838;-29
2022/04/17 11:08:47;;;;;;;4.40;2.40;;;;;;101555.52;;;;107297;1274;65970;-42
2022/04/17 11:11:14;;;;;;;3.90;2.30;;;;;;101553.39;;;;107154;1274;64814;-39
2022/04/17 11:14:23;;;;;;;6.00;2.50;;;;;;101550.44;;;;107283;1274;64837;-39
2022/04/17 11:17:01;;;;;;;4.20;2.30;;;;;;101539.35;;;;107265;1274;64903;-30
2022/04/17 11:19:32;;;;;;;5.10;2.30;;;;;;101531.73;;;;107198;1274;64930;-28
2022/04/17 11:22:05;;;;;;;4.30;2.30;;;;;;101527.30;;;;107269;1274;67631;-39
2022/04/17 11:24:56;;;;;;;4.10;2.10;;;;;;101532.21;;;;107267;1274;64827;-40
2022/04/17 11:27:32;;;;;;;4.80;2.40;;;;;;101524.18;;;;107130;1274;64850;-29
2022/04/17 11:30:00;;;;;;;5.20;2.60;;;;;;101516.66;;;;107220;1274;64847;-30
2022/04/17 11:32:29;;;;;;;4.90;2.30;;;;;;101510.98;;;;107226;1274;63589;-39
2022/04/17 11:35:01;;;;;;;4.10;2.30;;;;;;101498.20;;;;107254;1274;65254;-38
2022/04/17 11:37:30;;;;;;;4.70;2.30;;;;;;101499.36;;;;107247;1274;64711;-30
2022/04/17 11:40:11;;;;;;;5.00;2.40;;;;;;101502.08;;;;107179;1274;64832;-30
2022/04/17 11:42:47;;;;;;;4.30;2.10;;;;;;101502.79;;;;107119;1274;64804;-39
2022/04/17 11:45:18;;;;;;;5.50;2.20;;;;;;101501.93;;;;107271;1274;64756;-39
2022/04/17 11:47:49;;;;;;;4.20;2.20;;;;;;101492.38;;;;107274;1274;65833;-39
2022/04/17 11:50:27;;;;;;;4.00;1.80;;;;;;101482.27;;;;107249;1274;64881;-39
2022/04/17 11:53:00;;;;;;;4.50;2.20;;;;;;101483.16;;;;107256;1274;64849;-39
2022/04/17 11:55:37;;;;;;;5.90;2.30;;;;;;101472.80;;;;107170;1274;64750;-39
2022/04/17 11:58:31;;;;;;;4.20;2.40;;;;;;101471.02;;;;107266;1274;64785;-30
2022/04/17 12:01:10;;;;;;;4.30;1.80;;;;;;101458.25;;;;107142;1274;67743;-30
2022/04/17 12:03:46;;;;;;;3.70;2.00;;;;;;101451.98;;;;107130;1274;64849;-39
2022/04/17 12:06:15;;;;;;;4.30;1.80;;;;;;101458.14;;;;107107;1274;64716;-46
2022/04/17 12:08:48;;;;;;;4.30;2.20;;;;;;101463.08;;;;107131;1274;64731;-30
2022/04/17 12:11:17;;;;;;;4.30;2.20;;;;;;101461.09;;;;107164;1274;64879;-30
2022/04/17 12:13:54;;;;;;;3.90;2.00;;;;;;101458.89;;;;107181;1274;66027;-30
2022/04/17 12:16:21;;;;;;;6.30;2.00;;;;;;101449.63;;;;106900;1274;304586;-32
2022/04/17 12:18:55;;;;;;;3.90;1.90;;;;;;101442.34;;;;107149;1274;64878;-30
2022/04/17 12:21:31;;;;;;;3.80;1.70;;;;;;101442.40;;;;107220;1274;64827;-29
2022/04/17 12:23:58;;;;;;;4.50;2.10;;;;;;101435.08;;;;107234;1274;64851;-39
2022/04/17 12:26:26;;;;;;;5.30;2.00;;;;;;101438.47;;;;107230;1274;65853;-39
2022/04/17 12:29:08;;;;;;;4.00;2.00;;;;;;101436.08;;;;107214;1274;64730;-39
2022/04/17 12:31:36;;;;;;;3.90;1.90;;;;;;101437.16;;;;107160;1274;64839;-38
2022/04/17 12:34:20;;;;;;;3.70;1.90;;;;;;101437.89;;;;107137;1274;64863;-30
2022/04/17 12:36:49;;;;;;;4.30;1.90;;;;;;101433.77;;;;107154;1274;65559;-38
2022/04/17 12:39:30;;;;;;;4.10;1.70;;;;;;101428.67;;;;107246;1274;66427;-39
2022/04/17 12:42:18;;;;;;;3.70;2.00;;;;;;101419.30;;;;107130;1274;64888;-39
2022/04/17 12:44:48;;;;;;;4.10;1.90;;;;;;101411.35;;;;107146;1274;64850;-39
2022/04/17 12:47:19;;;;;;;3.60;1.80;;;;;;101408.42;;;;107199;1274;64722;-40
2022/04/17 12:49:49;;;;;;;4.00;1.80;;;;;;101402.14;;;;107196;1273;64766;-30
2022/04/17 12:52:21;;;;;;;4.10;1.90;;;;;;101395.36;;;;107147;1274;67428;-30
2022/04/17 12:54:53;;;;;;;3.50;1.90;;;;;;101403.93;;;;107194;1274;64725;-30
2022/04/17 12:57:23;;;;;;;3.20;1.90;;;;;;101401.57;;;;107266;1273;64842;-30
2022/04/17 12:59:54;;;;;;;3.70;1.90;;;;;;101400.03;;;;107154;1274;64811;-30
2022/04/17 13:02:26;;;;;;;6.00;1.90;;;;;;101399.80;;;;107135;1274;64789;-30
2022/04/17 13:05:02;;;;;;;3.70;1.70;;;;;;101396.84;;;;107179;1274;66998;-30
2022/04/17 13:07:34;;;;;;;4.50;1.90;;;;;;101389.02;;;;107174;1274;64705;-29
2022/04/17 13:10:06;;;;;;;4.70;1.70;;;;;;101390.04;;;;107272;1274;65145;-30
2022/04/17 13:12:43;;;;;;;3.60;1.90;;;;;;101382.31;;;;107229;1274;65536;-30
2022/04/17 13:15:14;;;;;;;5.30;2.00;;;;;;101379.13;;;;107258;1274;64756;-30
2022/04/17 13:17:47;;;;;;;3.80;1.80;;;;;;101385.05;;;;107235;1274;65757;-39
2022/04/17 13:20:23;;;;;;;3.80;1.70;;;;;;101380.21;;;;107221;1274;64896;-38
2022/04/17 13:22:54;;;;;;;4.70;1.80;;;;;;101377.81;;;;107254;1274;64853;-30
2022/04/17 13:25:25;;;;;;;4.10;1.80;;;;;;101377.41;;;;107230;1274;64891;-30